Time;durP1;ratioP1;P1;durP2;ratioP2;P2;SDS_P1;SDS_P2;PMS_P1;PMS_P2;Temp;Humidity;BMP_temperature;BMP_pressure;BME280_temperature;BME280_humidity;BME280_pressure;Samples;Min_cycle;Max_cycle;Signal;HPM_P1;HPM_P2
2022/05/08 00:00:27;;;;;;;185.73;176.80;;;16.10;99.90;;;16.09;99.14;100654.00;4950510;28;20228;-66
2022/05/08 00:02:55;;;;;;;109.07;102.47;;;16.00;99.90;;;16.12;97.98;100653.09;4917690;28;20221;-65
2022/05/08 00:05:25;;;;;;;92.82;87.70;;;16.00;99.90;;;16.05;98.50;100656.72;4936696;28;20688;-66
2022/05/08 00:07:53;;;;;;;75.80;70.78;;;15.90;99.90;;;15.99;98.14;100655.00;4950210;28;20218;-65
2022/05/08 00:10:21;;;;;;;77.85;72.43;;;15.90;99.90;;;15.90;97.97;100647.97;4920274;28;20723;-65
2022/05/08 00:12:49;;;;;;;72.00;67.38;;;15.80;99.90;;;15.85;98.27;100647.13;4955505;28;20275;-65
2022/05/08 00:15:17;;;;;;;82.28;77.00;;;15.80;99.90;;;15.92;98.22;100669.28;4952963;28;20205;-66
2022/05/08 00:17:45;;;;;;;94.68;88.60;;;15.70;99.90;;;15.72;99.21;100657.91;4954907;28;20206;-66
2022/05/08 00:20:12;;;;;;;116.95;110.25;;;15.70;99.90;;;15.65;100.00;100667.75;4923878;28;20221;-65
2022/05/08 00:22:45;;;;;;;108.10;102.15;;;16.30;99.90;;;15.54;100.00;100675.75;4936069;28;20201;-65
2022/05/08 00:25:13;;;;;;;85.35;79.90;;;15.50;99.90;;;15.57;100.00;100704.16;4952189;28;20213;-65
2022/05/08 00:27:40;;;;;;;75.95;71.55;;;15.50;99.90;;;15.44;100.00;100702.50;4934866;28;20221;-65
2022/05/08 00:30:09;;;;;;;69.60;64.55;;;15.40;99.90;;;15.48;100.00;100714.91;4965022;28;20252;-65
2022/05/08 00:32:37;;;;;;;67.53;63.05;;;15.40;99.90;;;15.41;100.00;100716.72;4916171;28;20221;-65
2022/05/08 00:35:09;;;;;;;65.68;61.15;;;15.30;99.90;;;15.40;100.00;100717.63;4937966;28;20205;-65
2022/05/08 00:37:41;;;;;;;72.78;68.50;;;15.30;99.90;;;15.33;100.00;100714.09;4950003;28;20210;-65
2022/05/08 00:40:09;;;;;;;67.25;62.67;;;15.30;99.90;;;15.23;100.00;100719.50;4934288;28;20237;-65
2022/05/08 00:42:36;;;;;;;63.22;59.55;;;15.20;99.90;;;15.21;100.00;100723.94;4919313;28;20216;-65
2022/05/08 00:45:05;;;;;;;76.03;71.43;;;15.20;99.90;;;15.19;100.00;100733.72;4967481;28;20206;-65
2022/05/08 00:47:33;;;;;;;82.80;77.65;;;15.00;99.90;;;15.25;100.00;100739.91;4954127;28;20220;-65
2022/05/08 00:50:01;;;;;;;79.45;75.20;;;15.00;99.90;;;15.22;100.00;100728.38;4938092;28;20221;-65
2022/05/08 00:52:30;;;;;;;87.78;82.95;;;15.00;99.90;;;15.19;100.00;100728.41;4950406;28;20221;-65
2022/05/08 00:55:00;;;;;;;95.43;89.97;;;15.00;99.90;;;15.20;100.00;100735.50;4950367;28;20200;-65
2022/05/08 00:57:28;;;;;;;110.53;104.63;;;15.00;99.90;;;15.24;100.00;100734.59;4933797;28;20689;-65
2022/05/08 01:00:04;;;;;;;111.00;104.85;;;15.00;99.90;;;15.11;100.00;100733.75;4933123;28;20232;-65
2022/05/08 01:02:33;;;;;;;117.25;111.35;;;15.00;99.90;;;15.14;100.00;100746.19;4940965;28;20228;-65
2022/05/08 01:05:01;;;;;;;123.07;117.07;;;14.90;99.90;;;15.04;100.00;100740.88;4964817;28;20205;-65
2022/05/08 01:07:29;;;;;;;145.27;136.75;;;14.90;99.90;;;15.03;100.00;100744.44;4920211;28;20205;-66
2022/05/08 01:09:58;;;;;;;167.90;159.07;;;14.80;99.90;;;15.07;100.00;100753.31;4934558;28;20583;-65
2022/05/08 01:12:27;;;;;;;189.35;180.75;;;14.80;99.90;;;14.94;100.00;100746.25;4934895;28;20213;-65
2022/05/08 01:15:16;;;;;;;256.27;241.18;;;14.80;99.90;;;14.93;100.00;100766.69;4922831;28;20221;-65
2022/05/08 01:17:44;;;;;;;156.18;149.40;;;14.80;99.90;;;14.90;100.00;100769.34;4954616;28;20382;-66
2022/05/08 01:20:12;;;;;;;152.27;145.02;;;14.80;99.90;;;14.89;100.00;100772.03;4950908;28;20229;-65
2022/05/08 01:22:41;;;;;;;156.38;149.00;;;14.70;99.90;;;14.90;100.00;100785.34;4951525;28;20209;-65
2022/05/08 01:25:09;;;;;;;140.10;133.18;;;14.70;99.90;;;14.81;100.00;100780.03;4951431;28;20213;-65
2022/05/08 01:27:36;;;;;;;135.43;128.48;;;14.70;99.90;;;14.75;100.00;100788.03;4964625;28;20209;-65
2022/05/08 01:30:05;;;;;;;115.70;109.80;;;14.70;99.90;;;14.78;100.00;100796.00;4952630;28;20239;-65
2022/05/08 01:32:33;;;;;;;110.15;104.10;;;14.60;99.90;;;14.68;100.00;100791.59;4914327;28;20225;-65
2022/05/08 01:35:02;;;;;;;101.45;95.10;;;14.60;99.90;;;14.76;100.00;100808.44;4931794;28;20682;-65
2022/05/08 01:37:30;;;;;;;102.50;96.35;;;14.60;99.90;;;14.63;100.00;100798.72;4936131;28;20213;-65
2022/05/08 01:39:58;;;;;;;90.82;85.05;;;14.50;99.90;;;14.57;100.00;100806.72;4949931;28;20229;-65
2022/05/08 01:42:27;;;;;;;83.43;78.78;;;14.50;99.90;;;14.57;100.00;100812.91;4935413;28;20220;-65
2022/05/08 01:44:55;;;;;;;85.93;80.35;;;14.50;99.90;;;14.50;100.00;100819.13;4917733;28;20216;-65
2022/05/08 01:50:10;;;;;;;96.70;91.45;;;14.40;99.90;;;14.50;100.00;100839.53;4950694;28;20236;-65
2022/05/08 01:52:37;;;;;;;138.73;131.55;;;14.40;99.90;;;14.50;100.00;100834.22;4935489;28;20210;-65
2022/05/08 01:55:06;;;;;;;152.20;144.45;;;14.30;99.90;;;14.43;100.00;100836.00;4912589;28;20267;-65
2022/05/08 01:57:33;;;;;;;179.45;171.13;;;14.30;99.90;;;14.45;100.00;100846.63;4912951;28;20209;-65
2022/05/08 02:00:01;;;;;;;173.10;164.05;;;14.20;99.90;;;14.35;100.00;100841.28;4953139;28;20229;-65
2022/05/08 02:02:43;;;;;;;162.23;153.95;;;14.20;99.90;;;14.40;100.00;100846.59;4935117;28;20213;-65
2022/05/08 02:05:11;;;;;;;175.52;166.05;;;14.20;99.90;;;14.35;100.00;100854.59;4947590;28;20213;-65
2022/05/08 02:07:39;;;;;;;197.45;186.02;;;14.20;99.90;;;14.35;100.00;100857.25;4932152;28;20220;-65
2022/05/08 02:10:07;;;;;;;191.13;182.32;;;14.20;99.90;;;14.26;100.00;100848.34;4932427;29;20234;-66
2022/05/08 02:12:36;;;;;;;211.77;202.18;;;14.10;99.90;;;14.28;100.00;100862.53;4950391;28;20205;-66
2022/05/08 02:15:09;;;;;;;196.45;187.15;;;14.10;99.90;;;14.24;100.00;100864.31;4949187;28;20558;-65
2022/05/08 02:17:38;;;;;;;211.82;202.63;;;14.10;99.90;;;14.14;100.00;100865.19;4953509;28;20210;-65
2022/05/08 02:20:09;;;;;;;199.27;190.18;;;14.00;99.90;;;14.09;100.00;100872.25;4934636;28;20229;-66
2022/05/08 02:22:37;;;;;;;210.95;200.95;;;14.00;99.90;;;14.17;100.00;100883.81;4948600;28;20216;-65
2022/05/08 02:25:07;;;;;;;210.85;201.43;;;14.00;99.90;;;14.09;100.00;100880.25;4947738;28;20261;-66
2022/05/08 02:27:41;;;;;;;204.63;195.10;;;13.90;99.90;;;14.05;100.00;100891.75;4947329;28;20209;-65
2022/05/08 02:30:11;;;;;;;229.23;218.52;;;13.90;99.90;;;14.03;100.00;100890.88;4913877;28;20229;-65
2022/05/08 02:32:39;;;;;;;246.32;235.20;;;13.90;99.90;;;14.10;100.00;100898.88;4934087;28;20217;-65
2022/05/08 02:35:09;;;;;;;231.68;221.63;;;13.90;99.90;;;14.07;100.00;100900.63;4948296;28;20225;-65
2022/05/08 02:37:39;;;;;;;239.93;228.93;;;13.90;99.90;;;14.06;100.00;100902.41;4967829;28;20206;-64
2022/05/08 02:40:09;;;;;;;225.50;215.43;;;13.90;99.90;;;13.98;100.00;100898.84;4932094;29;20225;-65
2022/05/08 02:42:38;;;;;;;242.65;232.05;;;13.80;99.90;;;13.94;100.00;100904.13;4948143;28;20217;-64
2022/05/08 02:45:11;;;;;;;233.50;222.88;;;13.80;99.90;;;13.92;100.00;100909.44;4924456;28;20209;-65
2022/05/08 02:47:41;;;;;;;210.93;201.48;;;13.70;99.90;;;13.86;100.00;100911.22;4918197;28;20220;-65
2022/05/08 02:50:11;;;;;;;208.05;198.52;;;13.70;99.90;;;13.80;100.00;100905.88;4955179;28;20237;-65
2022/05/08 02:52:40;;;;;;;221.27;211.45;;;13.70;99.90;;;13.90;100.00;100927.19;4922705;28;20209;-65
2022/05/08 03:00:47;;;;;;;238.23;227.20;;;13.60;99.90;;;13.74;100.00;100926.22;4936913;28;20210;-65
2022/05/08 03:03:16;;;;;;;276.40;263.27;;;13.60;99.90;;;13.82;100.00;100941.31;4900143;28;20209;-65
2022/05/08 03:05:47;;;;;;;247.35;236.20;;;13.60;99.90;;;13.81;100.00;100945.75;4922598;28;20572;-65
2022/05/08 03:08:17;;;;;;;246.52;234.70;;;13.60;99.90;;;13.72;100.00;100943.94;4935916;28;20209;-65
2022/05/08 03:13:38;;;;;;;250.63;238.88;;;13.60;99.90;;;13.73;100.00;100964.31;4926164;28;20681;-65
2022/05/08 03:16:09;;;;;;;242.25;231.02;;;13.50;99.90;;;13.63;100.00;100946.56;4955482;28;20229;-65
2022/05/08 03:18:40;;;;;;;248.60;237.10;;;13.50;99.90;;;13.61;100.00;100958.94;4940246;28;20309;-65
2022/05/08 03:21:09;;;;;;;245.90;234.50;;;13.50;99.90;;;13.62;100.00;100968.69;4953452;28;20217;-65
2022/05/08 03:23:39;;;;;;;239.30;228.77;;;13.40;99.90;;;13.62;100.00;100971.38;4938189;28;20208;-65
2022/05/08 03:26:08;;;;;;;232.98;222.18;;;13.40;99.90;;;13.58;100.00;100966.03;4956231;28;20212;-65
2022/05/08 03:28:40;;;;;;;258.52;246.77;;;13.40;99.90;;;13.60;100.00;100975.78;4954186;28;20581;-65
2022/05/08 03:31:09;;;;;;;245.95;234.70;;;13.40;99.90;;;13.57;100.00;100986.41;4948728;28;20202;-65
2022/05/08 03:33:39;;;;;;;219.48;209.60;;;13.40;99.90;;;13.53;100.00;100989.03;4951049;28;20213;-65
2022/05/08 03:36:10;;;;;;;189.57;180.68;;;13.30;99.90;;;13.54;100.00;100990.81;4938804;28;20228;-65
2022/05/08 03:38:47;;;;;;;169.65;161.05;;;13.30;99.90;;;13.52;100.00;100998.75;4956053;28;20705;-64
2022/05/08 03:41:15;;;;;;;164.73;156.98;;;13.30;99.90;;;13.49;100.00;101000.50;4919126;28;20212;-65
2022/05/08 03:43:47;;;;;;;159.70;151.95;;;13.30;99.90;;;13.44;100.00;100997.81;4915240;28;20225;-65
2022/05/08 03:46:15;;;;;;;155.93;148.40;;;13.40;99.90;;;13.37;100.00;101004.88;4922709;28;20213;-65
2022/05/08 03:48:44;;;;;;;180.18;171.82;;;13.30;99.90;;;13.44;100.00;101012.00;4944588;28;20241;-65
2022/05/08 03:51:12;;;;;;;169.02;160.90;;;13.30;99.90;;;13.39;100.00;101010.19;4934766;28;20216;-65
2022/05/08 03:53:42;;;;;;;162.55;155.75;;;13.30;99.90;;;13.35;100.00;101021.69;4921684;28;20220;-65
2022/05/08 03:56:10;;;;;;;185.27;176.43;;;13.30;99.90;;;13.30;100.00;101015.44;4919272;28;20232;-65
2022/05/08 03:58:41;;;;;;;200.60;191.50;;;13.30;99.90;;;13.34;100.00;101025.22;4918558;28;20225;-65
2022/05/08 04:01:09;;;;;;;209.95;199.63;;;13.30;99.90;;;13.24;100.00;101034.88;4950740;28;20206;-65
2022/05/08 04:03:38;;;;;;;217.52;207.50;;;13.20;99.90;;;13.32;100.00;101042.91;4969601;28;20228;-65
2022/05/08 04:06:06;;;;;;;225.50;215.25;;;13.20;99.90;;;13.23;100.00;101048.16;4972167;28;20264;-65
2022/05/08 04:08:34;;;;;;;236.98;226.13;;;13.20;99.90;;;13.26;100.00;101054.38;4934922;28;20605;-65
2022/05/08 04:11:02;;;;;;;230.15;219.93;;;13.10;99.90;;;13.29;100.00;101056.16;4950614;28;20287;-65
2022/05/08 04:13:30;;;;;;;240.07;229.20;;;13.10;99.90;;;13.29;100.00;101064.13;4917021;28;20206;-65
2022/05/08 04:16:16;;;;;;;221.05;211.30;;;13.10;99.90;;;13.33;100.00;101068.59;4963083;28;20233;-64
2022/05/08 04:18:45;;;;;;;211.75;202.35;;;13.10;99.90;;;13.28;100.00;101070.31;4936232;28;20237;-65
2022/05/08 04:21:13;;;;;;;226.88;216.43;;;13.10;99.90;;;13.27;100.00;101073.88;4943714;28;20209;-65
2022/05/08 04:26:28;;;;;;;247.23;235.95;;;13.10;99.90;;;13.23;100.00;101085.34;4967722;28;20941;-65
2022/05/08 04:28:57;;;;;;;259.50;247.40;;;13.10;99.90;;;13.26;100.00;101086.25;4944391;28;20242;-65
2022/05/08 04:31:28;;;;;;;246.43;234.77;;;13.10;99.90;;;13.26;100.00;101094.22;4962325;28;20213;-65
2022/05/08 04:33:57;;;;;;;254.90;242.45;;;13.10;99.90;;;13.24;100.00;101101.28;4934539;28;20209;-65
2022/05/08 04:36:24;;;;;;;233.32;223.00;;;13.00;99.90;;;13.24;100.00;101113.69;4903245;28;20221;-65
2022/05/08 04:38:52;;;;;;;243.48;231.90;;;13.10;99.90;;;13.25;100.00;101118.13;4930498;28;20235;-65
2022/05/08 04:41:20;;;;;;;232.80;221.27;;;13.10;99.90;;;13.29;100.00;101126.13;4952529;28;20206;-65
2022/05/08 04:43:59;;;;;;;212.02;201.52;;;13.00;99.90;;;13.24;100.00;101126.97;4934589;28;20203;-66
2022/05/08 04:46:33;;;;;;;202.95;193.52;;;13.10;99.90;;;13.20;100.00;101130.47;4962368;28;20228;-65
2022/05/08 04:49:03;;;;;;;223.00;211.77;;;13.00;99.90;;;13.18;100.00;101142.84;4964664;28;20248;-65
2022/05/08 04:51:31;;;;;;;208.52;198.70;;;13.00;99.90;;;13.22;100.00;101142.00;4948628;28;20213;-65
2022/05/08 04:53:59;;;;;;;152.98;146.65;;;13.00;99.90;;;13.16;100.00;101156.06;4954416;28;20209;-64
2022/05/08 04:56:28;;;;;;;149.40;142.02;;;13.00;99.90;;;13.19;100.00;101153.47;4935254;28;20240;-65
2022/05/08 04:58:57;;;;;;;154.52;146.25;;;13.00;99.90;;;13.25;100.00;101168.59;4948563;28;20233;-66
2022/05/08 05:01:25;;;;;;;169.77;161.27;;;13.00;99.90;;;13.20;100.00;101167.66;4949925;28;20210;-65
2022/05/08 05:03:54;;;;;;;174.88;164.82;;;13.00;99.90;;;13.24;100.00;101177.44;4897561;28;20232;-66
2022/05/08 05:06:30;;;;;;;157.00;148.40;;;13.00;99.90;;;13.28;100.00;101185.44;4950500;28;20218;-66
2022/05/08 05:08:58;;;;;;;186.50;176.70;;;13.00;99.90;;;13.36;100.00;101182.84;4914022;28;20723;-66
2022/05/08 05:11:26;;;;;;;184.10;174.73;;;13.10;99.90;;;13.41;100.00;101186.44;4928986;28;20236;-65
2022/05/08 05:13:54;;;;;;;196.20;187.48;;;13.10;99.90;;;13.45;100.00;101193.56;4951595;28;20213;-66
2022/05/08 05:16:23;;;;;;;168.40;160.40;;;13.10;99.90;;;13.46;100.00;101205.97;4953515;28;20221;-65
2022/05/08 05:18:51;;;;;;;188.90;179.77;;;13.20;99.90;;;13.53;100.00;101206.94;4949845;28;20229;-65
2022/05/08 05:21:19;;;;;;;187.20;178.35;;;13.20;99.90;;;13.57;100.00;101206.09;4944794;28;20204;-65
2022/05/08 05:23:47;;;;;;;177.60;169.00;;;13.20;99.90;;;13.68;100.00;101201.75;4919896;28;20264;-65
2022/05/08 05:26:15;;;;;;;183.60;174.60;;;13.30;99.90;;;13.79;100.00;101221.34;4953012;28;20592;-66
2022/05/08 05:28:44;;;;;;;166.30;158.73;;;13.40;99.90;;;13.88;100.00;101218.75;4917411;28;20237;-65
2022/05/08 05:31:12;;;;;;;162.05;153.95;;;13.50;99.90;;;13.97;100.00;101224.16;4947250;28;20216;-65
2022/05/08 05:33:41;;;;;;;192.80;183.75;;;13.60;99.90;;;13.98;100.00;101211.75;4934727;28;20206;-65
2022/05/08 05:36:09;;;;;;;168.32;159.57;;;13.60;99.90;;;14.02;100.00;101211.78;4913987;28;20221;-65
2022/05/08 05:38:36;;;;;;;164.35;155.30;;;13.70;99.90;;;14.07;100.00;101211.81;4942129;28;20240;-66
2022/05/08 05:41:04;;;;;;;167.25;159.77;;;13.70;99.90;;;14.12;100.00;101218.03;4950873;28;20232;-65
2022/05/08 05:43:40;;;;;;;173.60;164.73;;;13.80;99.90;;;14.13;100.00;101221.59;4950137;28;20224;-65
2022/05/08 05:49:03;;;;;;;171.02;164.00;;;13.90;99.90;;;14.14;100.00;101223.38;4971643;28;20233;-65
2022/05/08 05:51:31;;;;;;;160.38;153.38;;;13.90;99.90;;;14.26;100.00;101239.44;4954832;28;20205;-65
2022/05/08 05:54:01;;;;;;;158.15;150.93;;;13.90;99.90;;;14.26;100.00;101240.31;4970658;28;20242;-65
2022/05/08 05:56:29;;;;;;;154.70;147.40;;;14.00;99.90;;;14.31;100.00;101241.28;4937319;28;20221;-65
2022/05/08 05:58:57;;;;;;;148.27;141.95;;;14.00;99.90;;;14.42;100.00;101254.69;4936122;28;20232;-65
2022/05/08 06:01:25;;;;;;;142.25;135.88;;;14.10;99.90;;;14.47;100.00;101252.03;4954396;28;20225;-65
2022/05/08 06:03:54;;;;;;;140.85;135.13;;;14.10;99.90;;;14.60;100.00;101254.78;4937702;28;20205;-65
2022/05/08 06:06:22;;;;;;;142.93;136.45;;;14.20;99.90;;;14.56;100.00;101238.78;4918947;28;20205;-66
2022/05/08 06:08:50;;;;;;;151.82;144.32;;;14.20;99.90;;;14.55;100.00;101235.22;4921581;28;20276;-65
2022/05/08 06:11:18;;;;;;;154.90;147.18;;;14.20;99.90;;;14.75;100.00;101253.09;4937474;28;20213;-65
2022/05/08 06:13:46;;;;;;;148.82;141.88;;;14.30;99.90;;;14.70;100.00;101237.97;4919477;28;20206;-65
2022/05/08 06:16:14;;;;;;;153.75;146.77;;;14.40;99.90;;;14.80;100.00;101246.00;4937243;28;20229;-65
2022/05/08 06:18:43;;;;;;;158.63;151.40;;;14.40;99.90;;;14.81;100.00;101238.03;4936304;28;20244;-65
2022/05/08 06:21:11;;;;;;;162.65;155.80;;;14.40;99.90;;;14.87;100.00;101253.16;4938217;28;20325;-65
2022/05/08 06:23:39;;;;;;;166.88;158.93;;;14.50;99.90;;;14.80;100.00;101246.00;4971640;28;21780;-65
2022/05/08 06:26:09;;;;;;;177.98;169.77;;;14.50;99.90;;;14.71;100.00;101241.53;4938019;28;20658;-65
2022/05/08 06:28:37;;;;;;;200.18;190.77;;;14.50;99.90;;;14.79;100.00;101237.13;4949714;28;20685;-65
2022/05/08 06:31:05;;;;;;;181.30;174.02;;;14.50;99.90;;;14.81;100.00;101230.03;4953310;28;20217;-65
2022/05/08 06:33:33;;;;;;;168.27;160.45;;;14.50;99.90;;;14.84;100.00;101239.81;4935924;28;20209;-65
2022/05/08 06:36:01;;;;;;;148.23;142.07;;;14.60;99.90;;;14.82;100.00;101245.13;4949940;28;20229;-65
2022/05/08 06:38:29;;;;;;;152.32;145.23;;;14.60;99.90;;;14.81;100.00;101243.34;4933386;28;20201;-65
2022/05/08 06:40:57;;;;;;;146.45;139.85;;;14.60;99.90;;;15.15;100.00;101275.47;4932980;28;20202;-65
2022/05/08 06:43:25;;;;;;;139.82;133.25;;;14.70;99.90;;;15.19;100.00;101266.59;4950013;28;20201;-65
2022/05/08 06:45:53;;;;;;;131.10;125.47;;;14.80;99.90;;;15.31;100.00;101264.84;4937490;28;20206;-65
2022/05/08 06:48:20;;;;;;;122.32;116.30;;;14.90;99.90;;;15.54;100.00;101272.91;4956345;28;20208;-65
2022/05/08 06:50:48;;;;;;;134.73;127.40;;;15.10;99.90;;;15.57;100.00;101269.34;4967520;28;20209;-65
2022/05/08 06:53:16;;;;;;;107.18;102.03;;;15.20;99.90;;;15.57;100.00;101259.63;4963422;28;20193;-65
2022/05/08 06:55:45;;;;;;;120.75;115.15;;;15.30;99.90;;;15.49;100.00;101236.47;4961880;28;20220;-65
2022/05/08 06:58:13;;;;;;;123.97;117.05;;;15.30;99.90;;;15.59;100.00;101236.50;4957300;28;20212;-65
2022/05/08 07:03:28;;;;;;;115.18;110.05;;;15.40;99.90;;;15.67;100.00;101236.56;4940672;28;20209;-65
2022/05/08 07:05:57;;;;;;;109.93;104.60;;;15.40;99.90;;;15.72;100.00;101244.56;4925423;28;20201;-65
2022/05/08 07:08:24;;;;;;;125.18;119.35;;;15.50;99.90;;;15.84;100.00;101258.78;4968598;28;20193;-65
2022/05/08 07:10:54;;;;;;;115.28;109.45;;;15.60;99.90;;;15.82;100.00;101252.56;4938278;28;20224;-66
2022/05/08 07:13:26;;;;;;;118.18;112.43;;;15.60;99.90;;;15.95;100.00;101251.69;4924380;28;20211;-65
2022/05/08 07:15:54;;;;;;;108.43;102.93;;;15.70;99.90;;;16.03;100.00;101251.69;4922639;28;20212;-65
2022/05/08 07:18:27;;;;;;;127.72;121.35;;;15.80;99.90;;;16.04;100.00;101264.13;4940110;28;20650;-65
2022/05/08 07:20:56;;;;;;;123.18;116.65;;;15.80;99.90;;;16.34;100.00;101268.56;4941056;28;20205;-65
2022/05/08 07:23:30;;;;;;;98.95;93.75;;;15.90;99.90;;;16.36;100.00;101247.19;4934330;28;20213;-66
2022/05/08 07:26:06;;;;;;;101.78;95.85;;;16.10;99.90;;;16.22;100.00;101220.53;4934568;28;20200;-66
2022/05/08 07:28:34;;;;;;;98.57;92.68;;;16.10;99.90;;;16.48;100.00;101228.47;4932340;28;20226;-66
2022/05/08 07:31:03;;;;;;;92.45;86.55;;;16.20;99.90;;;16.39;100.00;101212.47;4952942;28;20220;-65
2022/05/08 07:33:35;;;;;;;89.80;84.30;;;16.10;99.90;;;16.40;100.00;101204.47;4932555;28;20576;-65
2022/05/08 07:36:14;;;;;;;105.43;99.53;;;16.20;99.90;;;16.47;100.00;101198.22;4916294;28;20692;-65
2022/05/08 07:38:46;;;;;;;89.78;82.90;;;16.30;99.90;;;16.93;100.00;101222.16;4959436;28;20217;-65
2022/05/08 07:41:17;;;;;;;84.15;79.20;;;16.40;99.90;;;17.07;100.00;101208.72;4938278;28;20206;-65
2022/05/08 07:43:45;;;;;;;78.53;72.60;;;16.60;99.90;;;17.28;100.00;101198.78;4950153;28;20209;-65
2022/05/08 07:46:17;;;;;;;78.50;74.28;;;16.80;99.90;;;17.41;100.00;101188.91;4921046;28;20194;-65
2022/05/08 07:48:45;;;;;;;99.15;90.93;;;17.10;99.90;;;17.40;100.00;101178.22;4931825;28;20225;-66
2022/05/08 07:51:13;;;;;;;92.88;87.70;;;17.10;99.90;;;17.25;100.00;101163.19;4966730;28;20198;-65
2022/05/08 07:53:41;;;;;;;98.13;93.20;;;17.20;99.90;;;17.67;100.00;101178.03;4917987;28;20205;-65
2022/05/08 07:56:09;;;;;;;102.93;97.13;;;17.30;99.90;;;17.75;100.00;101169.94;4969536;28;20209;-65
2022/05/08 07:58:36;;;;;;;110.55;105.57;;;17.50;99.90;;;17.22;100.00;101104.38;4948011;28;20233;-65
2022/05/08 08:01:10;;;;;;;137.35;130.80;;;17.40;99.90;;;17.42;100.00;101121.16;4933285;28;20208;-65
2022/05/08 08:03:38;;;;;;;120.72;114.95;;;17.30;99.90;;;17.81;100.00;101140.47;4900676;28;20206;-66
2022/05/08 08:06:06;;;;;;;153.43;146.05;;;17.50;99.90;;;17.75;100.00;101125.34;4955834;28;20702;-66
2022/05/08 08:08:37;;;;;;;157.07;147.98;;;17.50;99.90;;;17.97;100.00;101118.00;4927652;28;20221;-66
2022/05/08 08:11:05;;;;;;;170.07;160.98;;;17.60;99.90;;;17.92;100.00;101111.81;4953777;28;20205;-66
2022/05/08 08:13:35;;;;;;;194.02;184.13;;;17.80;99.90;;;18.03;98.20;101091.16;4923048;28;20209;-66
2022/05/08 08:16:07;;;;;;;231.05;219.18;;;17.80;99.90;;;18.35;99.93;101122.06;4933472;28;20202;-66
2022/05/08 08:18:42;;;;;;;225.70;214.63;;;18.00;99.90;;;18.18;97.96;101077.63;4973102;28;20224;-66
2022/05/08 08:21:13;;;;;;;265.27;251.63;;;18.10;99.90;;;18.72;98.49;101119.84;4929463;28;20201;-66
2022/05/08 08:23:43;;;;;;;351.77;335.33;;;18.30;99.90;;;18.26;96.57;101053.47;4922562;28;20574;-66
2022/05/08 08:26:12;;;;;;;396.65;377.55;;;18.20;99.90;;;18.37;97.82;101064.91;4919137;28;20202;-66
2022/05/08 08:28:40;;;;;;;454.98;433.67;;;18.30;99.90;;;18.71;95.81;101088.59;4956315;28;20233;-66
2022/05/08 08:31:10;;;;;;;417.60;397.85;;;18.40;99.90;;;18.63;92.73;101011.00;4940261;28;20201;-66
2022/05/08 08:33:40;;;;;;;422.92;402.10;;;18.50;99.90;;;18.53;93.71;101006.66;4950665;28;20230;-65
2022/05/08 08:36:08;;;;;;;547.30;519.97;;;18.50;99.90;;;18.91;93.19;101038.28;4939625;28;20216;-65
2022/05/08 08:38:38;;;;;;;268.95;255.10;;;18.60;99.90;;;18.64;93.52;101009.22;4936287;28;20237;-65
2022/05/08 08:41:07;;;;;;;263.60;250.65;;;18.90;99.90;;;18.72;95.36;101034.09;4938953;28;20201;-65
2022/05/08 08:49:35;;;;;;;140.93;133.60;;;19.10;99.90;;;19.19;89.66;100958.28;4941341;28;20697;-66
2022/05/08 08:52:03;;;;;;;111.32;105.55;;;19.20;99.90;;;19.47;92.60;101010.50;4942574;28;20220;-66
2022/05/08 08:54:31;;;;;;;143.88;135.68;;;19.30;99.90;;;19.48;88.54;100947.00;4931627;28;20213;-66
2022/05/08 08:56:59;;;;;;;307.55;294.02;;;19.50;99.90;;;19.70;87.74;100950.22;4954065;28;20680;-66
2022/05/08 08:59:30;;;;;;;474.67;451.17;;;19.50;99.90;;;20.09;87.64;100964.59;4963833;28;20237;-66
2022/05/08 09:01:58;;;;;;;681.85;648.30;;;19.90;99.90;;;20.11;89.58;100981.56;4921527;28;20210;-67
2022/05/08 09:04:26;;;;;;;536.58;511.52;;;20.00;99.90;;;19.99;86.38;100901.28;4928576;28;20237;-66
2022/05/08 09:06:54;;;;;;;649.28;617.40;;;20.20;99.90;;;19.87;86.80;100891.69;4953253;28;20197;-66
2022/05/08 09:09:33;;;;;;;382.38;364.65;;;20.20;99.90;;;20.04;89.69;100935.16;4965297;28;20222;-66
2022/05/08 09:12:08;;;;;;;399.10;379.48;;;20.10;99.90;;;20.14;86.34;100900.94;4936212;28;20221;-66
2022/05/08 09:14:36;;;;;;;468.90;445.13;;;20.30;99.90;;;20.47;86.75;100917.22;4934031;28;20192;-66
2022/05/08 09:17:06;;;;;;;585.15;555.75;;;20.40;99.90;;;20.85;84.86;100918.97;4937736;28;20208;-66
2022/05/08 09:19:39;;;;;;;569.00;540.45;;;20.60;99.90;;;20.12;84.99;100835.63;4949945;28;20240;-66
2022/05/08 09:22:18;;;;;;;620.25;588.92;;;20.50;99.90;;;20.75;87.19;100929.94;4950507;28;20197;-66
2022/05/08 09:24:54;;;;;;;630.72;598.47;;;20.70;99.90;;;20.12;85.63;100824.91;4925481;28;20205;-66
2022/05/08 09:27:22;;;;;;;621.10;590.58;;;20.70;99.90;;;20.37;85.24;100842.19;4919876;28;20209;-66
2022/05/08 09:30:08;;;;;;;586.92;556.25;;;20.60;99.90;;;21.11;85.66;100894.97;4933425;28;20581;-66
2022/05/08 09:32:38;;;;;;;494.98;469.83;;;21.00;99.90;;;20.77;83.73;100820.56;4939391;28;20221;-66
2022/05/08 09:35:08;;;;;;;443.65;421.20;;;21.30;99.90;;;20.32;84.02;100779.63;4922361;28;20220;-65
2022/05/08 09:37:54;;;;;;;297.33;282.67;;;20.90;99.90;;;20.78;85.32;100843.84;4931537;28;20236;-66
2022/05/08 09:40:22;;;;;;;385.48;366.42;;;20.90;99.90;;;20.53;83.58;100777.34;4935518;29;20716;-66
2022/05/08 09:42:50;;;;;;;332.17;315.48;;;21.00;99.90;;;21.06;83.78;100829.69;4951510;28;20206;-66
2022/05/08 09:45:18;;;;;;;366.65;348.70;;;21.30;99.90;;;21.14;81.24;100808.84;4920995;28;20205;-66
2022/05/08 09:47:48;;;;;;;392.38;372.85;;;21.40;99.90;;;21.63;81.63;100839.72;4916404;28;20205;-66
2022/05/08 09:50:18;;;;;;;501.27;475.70;;;21.40;99.90;;;21.62;79.16;100774.22;4936639;28;20233;-66
2022/05/08 09:52:46;;;;;;;693.28;657.28;;;21.60;99.90;;;21.79;79.24;100772.81;4940230;28;20213;-66
2022/05/08 09:55:21;;;;;;;609.90;578.75;;;21.90;99.90;;;21.96;80.41;100782.13;4929336;28;20200;-66
2022/05/08 09:57:50;;;;;;;278.45;264.73;;;22.10;99.90;;;21.98;78.19;100749.75;4922078;28;20245;-66
2022/05/08 10:00:21;;;;;;;292.88;278.13;;;22.10;99.90;;;22.27;79.11;100768.59;4968740;28;20216;-66
2022/05/08 10:02:50;;;;;;;278.25;263.95;;;22.40;99.90;;;22.08;79.25;100737.78;4951932;28;20232;-66
2022/05/08 10:05:19;;;;;;;182.50;173.25;;;22.60;99.90;;;21.94;77.87;100694.25;4952507;28;20217;-66
2022/05/08 10:07:48;;;;;;;186.15;176.43;;;22.50;99.90;;;22.10;78.81;100722.44;4952620;28;20205;-66
2022/05/08 10:15:50;;;;;;;263.77;249.90;;;23.00;99.90;;;22.76;74.37;100650.94;4937279;28;20208;-66
2022/05/08 10:18:31;;;;;;;214.98;203.75;;;23.30;99.90;;;22.78;73.30;100618.53;4973035;28;20598;-66
2022/05/08 10:21:07;;;;;;;74.20;69.90;;;23.40;99.90;;;22.45;73.68;100566.78;4951161;28;20204;-67
2022/05/08 10:23:46;;;;;;;52.65;48.83;;;23.50;99.90;;;22.59;73.68;100588.69;4957419;28;20204;-66
2022/05/08 10:26:22;;;;;;;59.80;55.75;;;23.40;99.90;;;22.53;71.84;100541.28;4934097;28;20215;-67